Time;durP1;ratioP1;P1;durP2;ratioP2;P2;SDS_P1;SDS_P2;PMS_P1;PMS_P2;Temp;Humidity;BMP_temperature;BMP_pressure;BME280_temperature;BME280_humidity;BME280_pressure;Samples;Min_cycle;Max_cycle;Signal;HPM_P1;HPM_P2
2023/03/02 00:01:42;;;;;;;47.38;32.17;;;3.60;99.90;;;;;;7384205;19;20015;-70
2023/03/02 00:04:15;;;;;;;45.03;32.08;;;3.50;99.90;;;;;;7376838;19;20011;-70
2023/03/02 00:06:42;;;;;;;40.75;30.30;;;3.50;99.90;;;;;;7379790;19;20018;-70
2023/03/02 00:09:09;;;;;;;48.47;33.55;;;3.40;99.90;;;;;;7379655;19;20019;-70
2023/03/02 00:11:37;;;;;;;43.97;33.10;;;3.40;99.90;;;;;;7379872;19;20018;-70
2023/03/02 00:14:04;;;;;;;46.88;31.52;;;3.50;99.90;;;;;;7379078;19;20071;-70
2023/03/02 00:16:31;;;;;;;45.95;33.30;;;3.50;99.90;;;;;;7381423;19;20806;-71
2023/03/02 00:18:57;;;;;;;45.10;32.00;;;3.50;99.90;;;;;;7381900;19;20019;-70
2023/03/02 00:21:23;;;;;;;49.35;34.28;;;3.40;99.90;;;;;;7377877;19;20018;-70
2023/03/02 00:23:51;;;;;;;49.83;35.95;;;3.40;99.90;;;;;;7380424;19;20014;-70
2023/03/02 00:26:18;;;;;;;46.20;31.42;;;3.40;99.90;;;;;;7384237;19;20015;-70
2023/03/02 00:28:45;;;;;;;47.83;33.83;;;3.40;99.90;;;;;;7379135;19;20011;-70
2023/03/02 00:31:27;;;;;;;46.40;32.88;;;3.40;99.90;;;;;;7380413;19;20024;-70
2023/03/02 00:33:54;;;;;;;45.50;33.08;;;3.40;99.90;;;;;;7380692;19;20482;-70
2023/03/02 00:36:41;;;;;;;45.28;32.33;;;3.40;99.90;;;;;;7379867;19;20014;-70
2023/03/02 00:39:07;;;;;;;45.92;33.42;;;3.40;99.90;;;;;;7380787;19;20037;-70
2023/03/02 00:41:35;;;;;;;43.78;31.70;;;3.40;99.90;;;;;;7380569;19;20063;-70
2023/03/02 00:44:01;;;;;;;48.85;33.35;;;3.40;99.90;;;;;;7379544;19;20018;-71
2023/03/02 00:46:27;;;;;;;53.78;36.60;;;3.40;99.90;;;;;;7380015;19;20042;-70
2023/03/02 00:48:54;;;;;;;52.80;36.40;;;3.40;99.90;;;;;;7380193;19;20499;-71
2023/03/02 00:51:20;;;;;;;51.65;35.75;;;3.40;99.90;;;;;;7380114;19;20660;-70
2023/03/02 00:53:47;;;;;;;50.63;34.20;;;3.30;99.90;;;;;;7379097;19;20050;-70
2023/03/02 00:56:13;;;;;;;55.30;37.42;;;3.30;99.90;;;;;;7376327;19;20729;-71
2023/03/02 00:58:45;;;;;;;54.92;35.72;;;3.30;99.90;;;;;;7378125;19;20022;-72
2023/03/02 01:01:12;;;;;;;55.67;36.83;;;3.30;99.90;;;;;;7372073;19;20053;-71
2023/03/02 01:03:44;;;;;;;57.92;37.17;;;3.30;99.90;;;;;;7369470;19;20031;-72
2023/03/02 01:06:17;;;;;;;48.78;34.13;;;3.20;99.90;;;;;;7370682;19;20010;-72
2023/03/02 01:08:44;;;;;;;55.08;36.75;;;3.20;99.90;;;;;;7371684;19;20089;-71
2023/03/02 01:11:16;;;;;;;60.45;38.55;;;3.10;99.90;;;;;;7369193;19;20018;-71
2023/03/02 01:13:43;;;;;;;;;;;3.10;99.90;;;;;;7371143;19;20367;-71
2023/03/02 01:16:10;;;;;;;54.33;35.90;;;3.10;99.90;;;;;;7371453;19;20289;-72
2023/03/02 01:18:37;;;;;;;59.35;39.42;;;3.10;99.90;;;;;;7372498;19;20039;-71
2023/03/02 01:21:07;;;;;;;54.47;37.88;;;3.10;99.90;;;;;;7368508;19;20025;-72
2023/03/02 01:23:34;;;;;;;57.00;36.65;;;3.10;99.90;;;;;;7368366;19;20102;-72
2023/03/02 01:26:00;;;;;;;59.63;38.80;;;3.10;99.90;;;;;;7367953;19;20022;-72
2023/03/02 01:28:27;;;;;;;59.42;38.50;;;3.10;99.90;;;;;;7372371;19;20106;-72
2023/03/02 01:30:53;;;;;;;56.13;37.90;;;3.10;99.90;;;;;;7370994;19;20364;-72
2023/03/02 01:33:20;;;;;;;51.55;35.72;;;3.10;99.90;;;;;;7370708;19;20014;-72
2023/03/02 01:35:47;;;;;;;55.03;37.38;;;3.10;99.90;;;;;;7375603;19;20066;-72
2023/03/02 01:38:14;;;;;;;57.22;38.42;;;3.20;99.90;;;;;;7372444;19;20039;-72
2023/03/02 01:40:40;;;;;;;55.33;38.47;;;3.20;99.90;;;;;;7369614;19;20094;-72
2023/03/02 01:43:16;;;;;;;59.83;38.30;;;3.10;99.90;;;;;;7368244;19;20019;-72
2023/03/02 01:45:50;;;;;;;56.70;38.42;;;3.10;99.90;;;;;;7361700;19;20021;-72
2023/03/02 01:48:46;;;;;;;59.22;35.75;;;3.10;99.90;;;;;;7380087;19;20017;-72
2023/03/02 01:51:19;;;;;;;56.78;37.83;;;3.00;99.90;;;;;;7374922;19;20029;-72
2023/03/02 01:53:47;;;;;;;53.58;35.65;;;2.80;99.90;;;;;;7376078;19;20978;-72
2023/03/02 01:56:16;;;;;;;58.80;37.50;;;2.90;99.90;;;;;;7376409;19;20014;-71
2023/03/02 01:58:44;;;;;;;58.85;35.33;;;2.80;99.90;;;;;;7388019;19;20018;-71
2023/03/02 02:01:17;;;;;;;63.25;38.42;;;2.70;99.90;;;;;;7387324;19;20018;-71
2023/03/02 02:03:55;;;;;;;57.55;38.35;;;2.70;99.90;;;;;;7386046;19;20018;-70
2023/03/02 02:06:31;;;;;;;59.60;38.15;;;2.70;99.90;;;;;;7383091;19;20026;-71
2023/03/02 02:09:00;;;;;;;66.03;41.08;;;2.60;99.90;;;;;;7384554;19;20028;-71
2023/03/02 02:11:46;;;;;;;62.53;38.58;;;2.60;99.90;;;;;;7385624;19;20030;-70
2023/03/02 02:14:13;;;;;;;58.53;35.55;;;2.70;99.90;;;;;;7384868;19;20636;-71
2023/03/02 02:16:40;;;;;;;60.20;38.63;;;2.60;99.90;;;;;;7382305;19;20500;-71
2023/03/02 02:19:28;;;;;;;67.32;39.55;;;2.70;99.90;;;;;;7372101;19;20019;-72
2023/03/02 02:21:54;;;;;;;;;;;2.60;99.90;;;;;;7377608;19;20859;-71
2023/03/02 02:24:28;;;;;;;67.57;40.08;;;2.70;99.90;;;;;;7374480;19;19922;-72
2023/03/02 02:26:56;;;;;;;64.07;38.33;;;2.60;99.90;;;;;;7382235;19;20018;-70
2023/03/02 02:29:33;;;;;;;60.10;37.33;;;2.70;99.90;;;;;;7382646;19;20652;-71
2023/03/02 02:32:25;;;;;;;51.05;32.35;;;2.70;99.90;;;;;;7384622;19;20029;-71
2023/03/02 02:34:58;;;;;;;47.80;31.80;;;2.70;99.90;;;;;;7385016;19;20469;-71
2023/03/02 02:37:38;;;;;;;49.63;33.90;;;2.60;99.90;;;;;;7382957;19;20690;-71
2023/03/02 02:40:10;;;;;;;48.65;32.70;;;2.60;99.90;;;;;;7386210;19;20014;-70
2023/03/02 02:42:43;;;;;;;47.67;32.38;;;2.60;99.90;;;;;;7381891;19;20077;-71
2023/03/02 02:45:24;;;;;;;50.20;32.73;;;2.60;99.90;;;;;;7384471;19;20496;-70
2023/03/02 02:47:55;;;;;;;48.78;29.58;;;2.60;99.90;;;;;;7382409;19;20110;-71
2023/03/02 02:50:32;;;;;;;48.30;33.80;;;2.60;99.90;;;;;;7377316;19;20020;-72
2023/03/02 02:53:20;;;;;;;51.72;34.20;;;2.60;99.90;;;;;;7373230;19;20074;-72
2023/03/02 02:55:49;;;;;;;48.90;32.92;;;2.60;99.90;;;;;;7374503;19;20014;-72
2023/03/02 02:58:42;;;;;;;49.00;32.63;;;2.50;99.90;;;;;;7368447;19;20018;-72
2023/03/02 03:01:14;;;;;;;50.47;33.45;;;2.60;99.90;;;;;;7375741;19;20019;-72
2023/03/02 03:03:44;;;;;;;50.17;31.67;;;2.60;99.90;;;;;;7374453;19;20037;-72
2023/03/02 03:06:19;;;;;;;42.25;28.20;;;2.50;99.90;;;;;;7375471;19;20124;-72
2023/03/02 03:08:46;;;;;;;43.90;28.40;;;2.50;99.90;;;;;;7373231;19;20023;-72
2023/03/02 03:11:23;;;;;;;42.25;28.25;;;2.50;99.90;;;;;;7373966;19;20026;-72
2023/03/02 03:14:02;;;;;;;42.03;29.27;;;2.40;99.90;;;;;;7372158;19;20585;-72
2023/03/02 03:16:31;;;;;;;43.20;29.73;;;2.50;99.90;;;;;;7372133;19;20035;-72
2023/03/02 03:19:11;;;;;;;39.42;26.40;;;2.40;99.90;;;;;;7374311;19;20014;-72
2023/03/02 03:21:38;;;;;;;45.10;30.98;;;2.40;99.90;;;;;;7375068;19;20018;-72
2023/03/02 03:24:05;;;;;;;46.53;31.25;;;2.40;99.90;;;;;;7373937;19;20105;-72
2023/03/02 03:26:31;;;;;;;45.72;30.75;;;2.40;99.90;;;;;;7369902;19;20042;-72
2023/03/02 03:28:58;;;;;;;47.58;31.70;;;2.40;99.90;;;;;;7384681;19;20014;-71
2023/03/02 03:31:26;;;;;;;48.83;32.10;;;2.40;99.90;;;;;;7381603;19;20506;-72
2023/03/02 03:33:54;;;;;;;48.15;30.90;;;2.40;99.90;;;;;;7387326;19;20078;-71
2023/03/02 03:36:22;;;;;;;47.35;32.10;;;2.40;99.90;;;;;;7380669;19;20011;-70
2023/03/02 03:38:48;;;;;;;46.33;30.60;;;2.50;99.90;;;;;;7384026;19;20022;-71
2023/03/02 03:41:19;;;;;;;50.80;33.67;;;2.40;99.90;;;;;;7383154;19;20796;-70
2023/03/02 03:43:45;;;;;;;47.38;32.28;;;2.40;99.90;;;;;;7385418;19;20466;-70
2023/03/02 03:46:12;;;;;;;50.33;31.05;;;2.40;99.90;;;;;;7385518;19;20010;-70
2023/03/02 03:48:39;;;;;;;52.33;31.65;;;2.40;99.90;;;;;;7375237;19;20034;-72
2023/03/02 03:51:06;;;;;;;50.50;31.98;;;2.40;99.90;;;;;;7373349;19;20022;-71
2023/03/02 03:53:34;;;;;;;53.67;32.50;;;2.40;99.90;;;;;;7372120;19;20019;-70
2023/03/02 03:56:02;;;;;;;46.65;29.98;;;2.30;99.90;;;;;;7384116;19;20018;-71
2023/03/02 03:58:30;;;;;;;51.85;31.20;;;2.30;99.90;;;;;;7384469;19;20521;-70
2023/03/02 04:00:57;;;;;;;43.40;28.45;;;2.30;99.90;;;;;;7383934;19;20021;-70
2023/03/02 04:03:24;;;;;;;47.08;31.60;;;2.30;99.90;;;;;;7371713;19;20019;-70
2023/03/02 04:05:51;;;;;;;56.70;32.47;;;2.30;99.90;;;;;;7384285;19;20018;-70
2023/03/02 04:08:18;;;;;;;52.50;30.77;;;2.20;99.90;;;;;;7386992;19;20007;-70
2023/03/02 04:10:47;;;;;;;44.22;29.25;;;2.20;99.90;;;;;;7383529;19;20010;-71
2023/03/02 04:13:13;;;;;;;44.50;28.63;;;2.20;99.90;;;;;;7380759;19;20018;-70
2023/03/02 04:15:41;;;;;;;44.40;28.42;;;2.20;99.90;;;;;;7384178;19;20041;-70
2023/03/02 04:18:07;;;;;;;44.22;28.05;;;2.20;99.90;;;;;;7375761;19;20018;-71
2023/03/02 04:20:35;;;;;;;45.20;29.40;;;2.20;99.90;;;;;;7374493;19;20015;-72
2023/03/02 04:23:02;;;;;;;46.30;27.17;;;2.20;99.90;;;;;;7372788;19;20022;-71
2023/03/02 04:25:30;;;;;;;47.40;28.13;;;2.20;99.90;;;;;;7374022;19;20029;-71
2023/03/02 04:28:07;;;;;;;53.80;30.08;;;2.10;99.90;;;;;;7376568;19;20497;-70
2023/03/02 04:30:36;;;;;;;45.58;28.85;;;2.10;99.90;;;;;;7376129;19;20041;-71
2023/03/02 04:33:03;;;;;;;67.88;31.75;;;2.10;99.90;;;;;;7373403;19;20863;-71
2023/03/02 04:35:31;;;;;;;78.93;31.85;;;2.10;99.90;;;;;;7377064;19;20927;-71
2023/03/02 04:37:58;;;;;;;77.82;32.22;;;2.10;99.90;;;;;;7375620;19;20333;-71
2023/03/02 04:40:25;;;;;;;86.50;32.58;;;2.00;99.90;;;;;;7374139;19;20035;-71
2023/03/02 04:42:52;;;;;;;107.32;31.83;;;2.00;99.90;;;;;;7373554;19;20044;-71
2023/03/02 04:45:19;;;;;;;91.50;31.92;;;2.00;99.90;;;;;;7374392;19;20034;-71
2023/03/02 04:47:45;;;;;;;64.85;30.38;;;2.00;99.90;;;;;;7371001;19;20396;-71
2023/03/02 04:50:14;;;;;;;152.25;36.05;;;2.00;99.90;;;;;;7374214;19;20015;-71
2023/03/02 04:52:41;;;;;;;100.15;34.40;;;2.00;99.90;;;;;;7369768;19;20082;-71
2023/03/02 04:55:08;;;;;;;123.97;31.83;;;2.00;99.90;;;;;;7373822;19;20343;-71
2023/03/02 04:57:34;;;;;;;98.22;33.92;;;2.00;99.90;;;;;;7372414;19;20019;-71
2023/03/02 05:00:01;;;;;;;115.03;36.03;;;2.00;99.90;;;;;;7370881;19;20019;-71
2023/03/02 05:02:29;;;;;;;100.53;32.90;;;2.00;99.90;;;;;;7371539;19;20128;-71
2023/03/02 05:04:56;;;;;;;75.97;35.13;;;1.90;99.90;;;;;;7371923;19;20034;-71
2023/03/02 05:07:22;;;;;;;104.22;36.50;;;1.90;99.90;;;;;;7372265;19;20034;-71
2023/03/02 05:09:48;;;;;;;65.32;31.52;;;2.00;99.90;;;;;;7373158;19;20010;-71
2023/03/02 05:12:17;;;;;;;73.88;33.42;;;2.00;99.90;;;;;;7366840;19;20029;-72
2023/03/02 05:14:48;;;;;;;92.95;34.83;;;1.90;99.90;;;;;;7370192;19;20445;-71
2023/03/02 05:17:14;;;;;;;96.30;32.60;;;1.90;99.90;;;;;;7372818;19;20018;-71
2023/03/02 05:19:41;;;;;;;100.72;35.42;;;1.90;99.90;;;;;;7375423;19;20428;-71
2023/03/02 05:22:07;;;;;;;79.00;33.30;;;1.90;99.90;;;;;;7381458;19;20026;-71
2023/03/02 05:24:34;;;;;;;66.55;31.77;;;1.80;99.90;;;;;;7379636;19;20041;-71
2023/03/02 05:27:00;;;;;;;73.47;31.88;;;1.80;99.90;;;;;;7378669;19;20015;-71
2023/03/02 05:29:26;;;;;;;76.07;34.03;;;1.80;99.90;;;;;;7374687;19;20022;-71
2023/03/02 05:31:53;;;;;;;76.88;33.70;;;1.80;99.90;;;;;;7380490;19;20094;-71
2023/03/02 05:34:19;;;;;;;78.03;34.25;;;1.80;99.90;;;;;;7380203;19;20026;-71
2023/03/02 05:36:46;;;;;;;74.50;33.80;;;1.80;99.90;;;;;;7379151;19;20022;-71
2023/03/02 05:39:12;;;;;;;77.00;34.28;;;1.80;99.90;;;;;;7380911;19;20479;-71
2023/03/02 05:41:39;;;;;;;72.80;33.05;;;1.80;99.90;;;;;;7380925;19;20025;-71
2023/03/02 05:44:23;;;;;;;86.05;35.42;;;1.80;99.90;;;;;;7385554;19;20019;-71
2023/03/02 05:46:49;;;;;;;92.47;35.00;;;1.80;99.90;;;;;;7381615;19;20015;-71
2023/03/02 05:49:16;;;;;;;100.10;38.28;;;1.80;99.90;;;;;;7384122;19;20029;-70
2023/03/02 05:51:42;;;;;;;126.50;39.70;;;1.80;99.90;;;;;;7382718;19;20655;-71
2023/03/02 05:54:10;;;;;;;118.90;37.20;;;1.80;99.90;;;;;;7385096;19;20033;-70
2023/03/02 05:56:39;;;;;;;110.82;37.25;;;1.70;99.90;;;;;;7381710;19;20015;-71
2023/03/02 05:59:05;;;;;;;104.65;39.20;;;1.80;99.90;;;;;;7379624;19;20022;-71
2023/03/02 06:01:32;;;;;;;108.82;40.85;;;1.80;99.90;;;;;;7379016;19;20030;-70
2023/03/02 06:03:58;;;;;;;139.77;38.45;;;1.70;99.90;;;;;;7381929;19;20077;-71
2023/03/02 06:06:25;;;;;;;130.05;39.25;;;1.70;99.90;;;;;;7384122;19;20505;-70
2023/03/02 06:08:52;;;;;;;111.60;39.42;;;1.70;99.90;;;;;;7382136;19;20028;-69
2023/03/02 06:11:18;;;;;;;150.88;43.70;;;1.70;99.90;;;;;;7381451;19;20491;-70
2023/03/02 06:13:45;;;;;;;99.97;38.92;;;1.60;99.90;;;;;;7381694;19;20015;-71
2023/03/02 06:16:11;;;;;;;96.43;37.28;;;1.70;99.90;;;;;;7378985;19;20041;-70
2023/03/02 06:18:38;;;;;;;137.35;40.78;;;1.70;99.90;;;;;;7380177;19;20053;-70
2023/03/02 06:21:05;;;;;;;180.30;42.88;;;1.60;99.90;;;;;;7381434;19;20048;-70
2023/03/02 06:23:31;;;;;;;117.07;39.03;;;1.60;99.90;;;;;;7383242;19;20014;-70
2023/03/02 06:25:58;;;;;;;147.90;40.65;;;1.50;99.90;;;;;;7380896;19;20030;-71
2023/03/02 06:28:25;;;;;;;102.28;37.08;;;1.50;99.90;;;;;;7375810;19;20019;-71
2023/03/02 06:30:52;;;;;;;114.07;33.58;;;1.40;99.90;;;;;;7378137;19;20022;-71
2023/03/02 06:33:20;;;;;;;132.52;36.40;;;1.40;99.90;;;;;;7369379;19;20011;-71
2023/03/02 06:35:47;;;;;;;129.93;40.72;;;1.40;99.90;;;;;;7382531;19;20018;-71
2023/03/02 06:38:14;;;;;;;137.93;41.88;;;1.40;99.90;;;;;;7400367;19;20025;-71
2023/03/02 06:40:40;;;;;;;91.65;37.08;;;1.40;99.90;;;;;;7375064;19;20018;-72
2023/03/02 06:43:06;;;;;;;109.15;40.25;;;1.50;99.90;;;;;;7372178;19;20450;-72
2023/03/02 06:45:33;;;;;;;146.52;43.08;;;1.50;99.90;;;;;;7370691;19;20019;-72
2023/03/02 06:48:00;;;;;;;97.93;35.40;;;1.40;99.90;;;;;;7373731;19;20042;-72
2023/03/02 06:50:27;;;;;;;101.60;34.60;;;1.50;99.90;;;;;;7373359;19;21576;-72
2023/03/02 06:52:54;;;;;;;112.30;36.97;;;1.50;99.90;;;;;;7376877;19;20019;-71
2023/03/02 06:55:20;;;;;;;135.65;37.20;;;1.50;99.90;;;;;;7378260;19;20022;-72
2023/03/02 06:57:46;;;;;;;128.70;40.17;;;1.50;99.90;;;;;;7383797;19;20053;-71
2023/03/02 07:00:16;;;;;;;164.85;40.40;;;1.50;99.90;;;;;;7383439;19;20078;-71
2023/03/02 07:02:45;;;;;;;144.60;38.88;;;1.50;99.90;;;;;;7388769;19;20023;-71
2023/03/02 07:05:12;;;;;;;82.38;35.30;;;1.50;99.90;;;;;;7378253;19;20038;-71
2023/03/02 07:07:38;;;;;;;104.95;35.83;;;1.50;99.90;;;;;;7388664;19;20022;-72
2023/03/02 07:10:06;;;;;;;84.78;34.13;;;1.60;99.90;;;;;;7374603;19;20023;-72
2023/03/02 07:12:32;;;;;;;124.00;38.30;;;1.60;99.90;;;;;;7383997;19;20405;-71
2023/03/02 07:14:59;;;;;;;95.95;34.45;;;1.60;99.90;;;;;;7387546;19;20030;-71
2023/03/02 07:17:26;;;;;;;82.88;31.88;;;1.60;99.90;;;;;;7389603;19;20030;-71
2023/03/02 07:19:53;;;;;;;73.32;32.22;;;1.60;99.90;;;;;;7386377;19;20023;-71
2023/03/02 07:22:19;;;;;;;102.35;37.30;;;1.70;99.90;;;;;;7383492;19;20022;-71
2023/03/02 07:24:45;;;;;;;88.25;34.97;;;1.70;99.90;;;;;;7382572;19;20026;-71
2023/03/02 07:27:20;;;;;;;120.82;39.40;;;1.60;99.90;;;;;;7384000;19;20485;-72
2023/03/02 07:29:53;;;;;;;80.72;35.97;;;1.70;99.90;;;;;;7375284;19;20663;-73
2023/03/02 07:32:20;;;;;;;64.10;32.40;;;1.90;99.90;;;;;;7372412;19;20022;-72
2023/03/02 07:34:46;;;;;;;80.05;31.00;;;1.90;99.90;;;;;;7375777;19;20030;-73
2023/03/02 07:37:12;;;;;;;87.15;32.47;;;1.90;99.90;;;;;;7372587;19;20142;-73
2023/03/02 07:39:38;;;;;;;69.57;33.72;;;1.90;99.90;;;;;;7370608;19;20568;-73
2023/03/02 07:42:07;;;;;;;63.92;31.02;;;1.90;99.90;;;;;;7371412;19;20018;-73
2023/03/02 07:44:37;;;;;;;54.88;30.80;;;1.90;99.90;;;;;;7369519;19;20043;-73
2023/03/02 07:47:04;;;;;;;65.13;32.03;;;2.00;99.90;;;;;;7373935;19;20010;-73
2023/03/02 07:49:31;;;;;;;74.78;32.53;;;2.00;99.90;;;;;;7377031;19;20353;-70
2023/03/02 07:51:58;;;;;;;71.18;31.55;;;2.10;99.90;;;;;;7383175;19;20022;-69
2023/03/02 07:54:29;;;;;;;82.93;32.17;;;2.10;99.90;;;;;;7380778;19;20022;-73
2023/03/02 07:56:59;;;;;;;79.38;32.97;;;2.20;99.90;;;;;;7374918;19;20085;-73
2023/03/02 07:59:27;;;;;;;78.68;37.10;;;2.20;99.90;;;;;;7378361;19;20019;-69
2023/03/02 08:01:54;;;;;;;87.10;33.05;;;2.20;99.90;;;;;;7377146;19;20018;-73
2023/03/02 08:04:27;;;;;;;83.45;31.42;;;2.10;99.90;;;;;;7372340;19;20038;-73
2023/03/02 08:06:54;;;;;;;73.75;32.28;;;2.10;99.90;;;;;;7373437;19;20018;-72
2023/03/02 08:09:20;;;;;;;61.60;30.25;;;2.20;99.90;;;;;;7372463;19;20028;-73
2023/03/02 08:11:46;;;;;;;63.70;28.27;;;2.10;99.90;;;;;;7372580;19;20810;-73
2023/03/02 08:14:14;;;;;;;105.60;39.35;;;2.20;99.90;;;;;;7380370;19;20010;-70
2023/03/02 08:16:40;;;;;;;62.28;29.67;;;2.20;99.90;;;;;;7374847;19;20018;-73
2023/03/02 08:19:07;;;;;;;54.17;29.00;;;2.20;99.90;;;;;;7374172;19;20875;-73
2023/03/02 08:21:34;;;;;;;53.00;29.83;;;2.20;99.90;;;;;;7373610;19;20030;-73
2023/03/02 08:24:00;;;;;;;58.03;30.70;;;2.30;99.90;;;;;;7375618;19;20058;-73
2023/03/02 08:26:27;;;;;;;59.22;30.08;;;2.30;99.90;;;;;;7372476;19;20022;-73
2023/03/02 08:28:53;;;;;;;53.63;30.38;;;2.30;99.90;;;;;;7373889;19;20094;-73
2023/03/02 08:31:23;;;;;;;52.05;30.38;;;2.40;99.90;;;;;;7373147;19;20022;-74
2023/03/02 08:33:49;;;;;;;52.50;28.35;;;2.40;99.90;;;;;;7374208;19;20466;-73
2023/03/02 08:36:18;;;;;;;53.75;30.95;;;2.40;99.90;;;;;;7375434;19;20354;-72
2023/03/02 08:38:45;;;;;;;41.65;27.73;;;2.40;99.90;;;;;;7373073;19;20360;-73
2023/03/02 08:41:14;;;;;;;58.60;34.65;;;2.50;99.90;;;;;;7372643;19;20019;-73
2023/03/02 08:43:41;;;;;;;62.25;30.25;;;2.60;99.90;;;;;;7371667;19;20500;-73
2023/03/02 08:46:10;;;;;;;62.67;29.35;;;2.50;99.90;;;;;;7375000;19;20053;-72
2023/03/02 08:48:45;;;;;;;55.38;28.27;;;2.40;99.90;;;;;;7374683;19;20019;-72
2023/03/02 08:51:18;;;;;;;49.05;27.30;;;2.50;99.90;;;;;;7373571;19;20015;-73
2023/03/02 08:53:47;;;;;;;51.42;27.63;;;2.50;99.90;;;;;;7371548;19;20019;-72
2023/03/02 08:56:28;;;;;;;49.60;28.20;;;2.50;99.90;;;;;;7377239;19;20014;-72
2023/03/02 08:58:59;;;;;;;60.13;27.53;;;2.50;99.90;;;;;;7380146;19;20066;-72
2023/03/02 09:01:29;;;;;;;56.72;28.98;;;2.50;99.90;;;;;;7380540;19;20907;-73
2023/03/02 09:03:59;;;;;;;48.42;28.15;;;2.50;99.90;;;;;;7379643;19;20472;-72
2023/03/02 09:06:31;;;;;;;63.83;30.05;;;2.60;99.90;;;;;;7378707;19;20030;-72
2023/03/02 09:09:01;;;;;;;45.00;27.63;;;2.60;99.90;;;;;;7379831;19;20045;-72
2023/03/02 09:11:27;;;;;;;56.20;29.23;;;2.70;99.90;;;;;;7378175;19;20025;-72
2023/03/02 09:13:55;;;;;;;44.30;24.65;;;2.70;99.90;;;;;;7379487;19;20010;-72
2023/03/02 09:16:24;;;;;;;40.13;25.98;;;2.60;99.90;;;;;;7381340;19;20026;-72
2023/03/02 09:18:52;;;;;;;37.72;23.77;;;2.70;99.90;;;;;;7387373;19;20014;-69
2023/03/02 09:21:19;;;;;;;39.92;24.50;;;2.80;99.90;;;;;;7393229;19;20018;-68
2023/03/02 09:23:46;;;;;;;37.60;24.88;;;2.90;99.90;;;;;;7388394;19;20053;-70
2023/03/02 09:26:12;;;;;;;51.30;28.50;;;2.90;99.90;;;;;;7386343;19;20362;-70
2023/03/02 09:28:39;;;;;;;41.15;26.15;;;2.90;99.90;;;;;;7379778;19;20034;-71
2023/03/02 09:31:07;;;;;;;47.97;28.27;;;3.00;99.90;;;;;;7386766;19;20018;-70
2023/03/02 09:33:34;;;;;;;38.67;26.23;;;3.00;99.90;;;;;;7380094;19;20102;-73
2023/03/02 09:36:08;;;;;;;42.80;26.67;;;3.00;99.90;;;;;;7378314;19;20560;-73
2023/03/02 09:38:34;;;;;;;53.38;26.83;;;3.00;99.90;;;;;;7380975;19;20023;-73
2023/03/02 09:41:06;;;;;;;39.70;26.42;;;3.10;99.90;;;;;;7378898;19;20774;-73
2023/03/02 09:43:59;;;;;;;43.05;27.00;;;3.00;99.90;;;;;;7377494;19;20447;-73
2023/03/02 09:46:29;;;;;;;46.65;25.90;;;3.00;99.90;;;;;;7378765;19;20021;-74
2023/03/02 09:49:25;;;;;;;41.47;26.63;;;3.10;99.90;;;;;;7378880;19;20019;-73
2023/03/02 09:52:13;;;;;;;38.92;27.52;;;3.10;99.90;;;;;;7377207;19;20469;-73
2023/03/02 09:54:40;;;;;;;39.22;26.88;;;3.20;99.90;;;;;;7377106;19;20031;-70
2023/03/02 09:57:36;;;;;;;41.17;26.85;;;3.30;99.90;;;;;;7383612;19;20672;-72
2023/03/02 10:00:07;;;;;;;36.45;25.83;;;3.50;99.90;;;;;;7384271;19;20018;-48
2023/03/02 10:02:52;;;;;;;42.35;27.83;;;3.50;99.90;;;;;;7376966;19;20026;-63
2023/03/02 10:05:49;;;;;;;38.67;25.67;;;3.70;99.90;;;;;;7379250;19;20045;-63
2023/03/02 10:08:25;;;;;;;40.15;26.25;;;3.70;99.90;;;;;;7378070;19;21345;-63
2023/03/02 10:10:52;;;;;;;38.72;24.45;;;3.90;99.90;;;;;;7375425;19;20860;-64
2023/03/02 10:13:21;;;;;;;37.08;25.95;;;3.80;99.90;;;;;;7373867;19;20011;-70
2023/03/02 10:15:56;;;;;;;37.13;26.85;;;3.80;99.90;;;;;;7377780;19;20610;-68
2023/03/02 10:18:38;;;;;;;35.60;25.33;;;3.70;99.90;;;;;;7380560;19;20022;-68
2023/03/02 10:21:23;;;;;;;35.67;25.55;;;3.80;99.90;;;;;;7377928;19;20018;-68
2023/03/02 10:24:08;;;;;;;34.80;24.95;;;3.80;99.90;;;;;;7376236;19;20565;-68
2023/03/02 10:26:45;;;;;;;37.70;24.75;;;3.90;99.90;;;;;;7380853;19;20021;-68
2023/03/02 10:29:49;;;;;;;33.50;25.63;;;3.80;99.90;;;;;;7376831;19;20018;-49
2023/03/02 10:32:30;;;;;;;45.90;31.20;;;3.90;99.90;;;;;;7373401;19;20022;-62
2023/03/02 10:35:01;;;;;;;30.90;23.00;;;4.10;99.90;;;;;;7375239;19;20014;-62
2023/03/02 10:37:39;;;;;;;34.03;25.00;;;4.00;99.90;;;;;;7379545;19;20101;-69
2023/03/02 10:40:06;;;;;;;34.55;25.20;;;4.10;99.90;;;;;;7376124;19;20019;-69
2023/03/02 10:42:42;;;;;;;35.78;26.13;;;4.20;99.90;;;;;;7379007;19;20474;-70
2023/03/02 10:45:21;;;;;;;34.20;25.23;;;4.20;99.90;;;;;;7374420;19;20018;-70
2023/03/02 10:48:08;;;;;;;33.13;24.50;;;4.20;99.90;;;;;;7376463;19;20026;-69
2023/03/02 10:50:36;;;;;;;31.48;23.73;;;4.30;99.90;;;;;;7376575;19;20047;-69
2023/03/02 10:53:07;;;;;;;34.35;25.38;;;4.50;99.90;;;;;;7376119;19;20101;-69
2023/03/02 10:55:44;;;;;;;34.65;25.50;;;4.50;99.90;;;;;;7373207;19;20022;-69
2023/03/02 10:58:28;;;;;;;34.03;24.42;;;4.50;99.90;;;;;;7376169;19;20612;-69
2023/03/02 11:00:57;;;;;;;39.30;28.50;;;4.60;99.90;;;;;;7376042;19;20022;-68
2023/03/02 11:03:23;;;;;;;35.33;26.30;;;4.70;99.90;;;;;;7374397;19;20033;-69
2023/03/02 11:05:50;;;;;;;35.10;27.15;;;4.60;99.90;;;;;;7376288;19;21758;-69
2023/03/02 11:08:17;;;;;;;38.70;26.60;;;4.70;99.90;;;;;;7375133;19;20029;-69
2023/03/02 11:11:00;;;;;;;35.00;26.58;;;4.60;99.90;;;;;;7377667;19;20049;-63
2023/03/02 11:13:32;;;;;;;35.80;25.88;;;4.80;99.90;;;;;;7372165;19;20018;-63
2023/03/02 11:16:05;;;;;;;33.45;24.63;;;4.80;99.90;;;;;;7377492;19;20028;-63
2023/03/02 11:18:47;;;;;;;36.72;28.15;;;4.80;99.90;;;;;;7373180;19;20103;-63
2023/03/02 11:21:38;;;;;;;33.88;24.25;;;4.90;99.90;;;;;;7374672;19;20408;-70
2023/03/02 11:24:17;;;;;;;34.30;24.97;;;4.90;99.90;;;;;;7373870;19;20046;-63
2023/03/02 11:27:06;;;;;;;34.10;24.77;;;5.10;99.90;;;;;;7375247;19;20298;-70
2023/03/02 11:29:59;;;;;;;54.25;38.67;;;5.10;99.90;;;;;;7369867;19;20015;-69
2023/03/02 11:32:53;;;;;;;36.78;27.45;;;5.30;99.90;;;;;;7373326;19;20018;-70
2023/03/02 11:35:43;;;;;;;34.83;25.85;;;5.20;99.90;;;;;;7366096;19;20035;-70
2023/03/02 11:38:27;;;;;;;34.95;26.15;;;5.20;99.90;;;;;;7373930;19;20022;-70
2023/03/02 11:41:16;;;;;;;34.35;25.98;;;5.20;99.90;;;;;;7398911;19;20415;-70
2023/03/02 11:43:43;;;;;;;32.20;23.27;;;5.40;99.90;;;;;;7404256;19;20017;-70
2023/03/02 11:46:21;;;;;;;34.20;24.83;;;5.40;99.90;;;;;;7410481;19;20046;-71
2023/03/02 11:48:51;;;;;;;34.90;24.63;;;5.40;99.90;;;;;;7408060;19;20018;-70
2023/03/02 11:51:19;;;;;;;32.35;25.65;;;5.50;99.90;;;;;;7406620;19;20018;-70
2023/03/02 11:54:01;;;;;;;32.53;25.27;;;5.50;99.90;;;;;;7404696;19;20032;-63
2023/03/02 11:56:31;;;;;;;34.22;24.60;;;5.60;99.90;;;;;;7407108;19;20049;-70
2023/03/02 11:59:09;;;;;;;36.13;26.27;;;5.80;99.90;;;;;;7405378;19;20673;-63
2023/03/02 12:01:39;;;;;;;31.85;24.52;;;6.00;99.90;;;;;;7401713;19;20188;-64
2023/03/02 12:04:28;;;;;;;34.35;24.70;;;6.10;99.90;;;;;;7400752;19;20703;-71
2023/03/02 12:06:54;;;;;;;31.10;25.20;;;6.20;99.90;;;;;;7404767;19;20373;-70
2023/03/02 12:09:22;;;;;;;30.65;24.00;;;6.10;99.90;;;;;;7403530;19;20022;-63
2023/03/02 12:12:19;;;;;;;36.38;27.20;;;6.20;99.90;;;;;;7406019;19;20010;-70
2023/03/02 12:14:45;;;;;;;31.17;24.10;;;6.10;99.90;;;;;;7405615;19;20026;-63
2023/03/02 12:17:20;;;;;;;37.65;27.73;;;5.90;99.90;;;;;;7404555;19;20118;-63
2023/03/02 12:19:49;;;;;;;32.92;24.23;;;5.80;99.90;;;;;;7403855;19;20022;-63
2023/03/02 12:22:29;;;;;;;32.05;24.35;;;6.00;99.90;;;;;;7407493;19;20365;-71
2023/03/02 12:25:24;;;;;;;31.98;24.05;;;6.00;99.90;;;;;;7405193;19;20026;-70
2023/03/02 12:27:58;;;;;;;32.80;25.80;;;6.40;99.90;;;;;;7406944;19;20366;-73
2023/03/02 12:30:27;;;;;;;33.47;24.90;;;6.60;99.90;;;;;;7408732;19;20050;-71
2023/03/02 12:33:20;;;;;;;32.55;25.85;;;6.50;99.90;;;;;;7408395;19;20620;-64
2023/03/02 12:35:48;;;;;;;34.08;26.92;;;6.80;99.90;;;;;;7397402;19;20026;-71
2023/03/02 12:38:18;;;;;;;27.67;21.70;;;6.60;99.90;;;;;;7401351;19;20637;-70
2023/03/02 12:41:12;;;;;;;31.48;24.73;;;6.50;99.90;;;;;;7398789;19;20034;-70
2023/03/02 12:44:13;;;;;;;30.52;22.40;;;6.60;99.90;;;;;;7402147;19;20445;-64
2023/03/02 12:46:45;;;;;;;29.15;22.42;;;6.50;99.90;;;;;;7400756;19;20046;-63
2023/03/02 12:49:51;;;;;;;32.47;25.05;;;6.40;99.90;;;;;;7400030;19;20022;-64
2023/03/02 12:52:28;;;;;;;29.40;22.80;;;6.20;99.90;;;;;;7371097;19;20019;-70
2023/03/02 12:55:19;;;;;;;32.22;25.20;;;6.20;99.90;;;;;;7370491;19;20022;-70
2023/03/02 12:57:51;;;;;;;29.65;23.00;;;6.10;99.90;;;;;;7371589;19;20361;-63